createdAt,value
2022-10-25T00:00:30.963Z,30.8
2022-10-25T00:01:32.873Z,30.8
2022-10-25T00:02:35.325Z,30.8
2022-10-25T00:03:37.343Z,30.8
2022-10-25T00:04:38.973Z,30.8
2022-10-25T00:05:40.792Z,30.8
2022-10-25T00:06:42.377Z,30.8
2022-10-25T00:07:44.723Z,30.8
2022-10-25T00:08:47.620Z,30.8
2022-10-25T00:09:49.324Z,30.8
2022-10-25T00:10:50.872Z,30.8
2022-10-25T00:11:52.409Z,30.8
2022-10-25T00:12:54.053Z,30.8
2022-10-25T00:13:55.662Z,30.8
2022-10-25T00:14:57.338Z,30.8
2022-10-25T00:15:58.948Z,30.8
2022-10-25T00:17:03.481Z,30.8
2022-10-25T00:18:05.111Z,30.7
2022-10-25T00:19:06.682Z,30.8
2022-10-25T00:20:08.354Z,30.8
2022-10-25T00:21:10.142Z,30.8
2022-10-25T00:22:11.765Z,30.8
2022-10-25T00:23:13.481Z,30.8
2022-10-25T00:24:15.049Z,30.8
2022-10-25T00:25:16.717Z,30.8
2022-10-25T00:26:18.329Z,30.8
2022-10-25T00:27:19.869Z,30.8
2022-10-25T00:28:21.595Z,30.8
2022-10-25T00:30:25.791Z,30.7
2022-10-25T00:31:27.315Z,30.7
2022-10-25T00:32:28.862Z,30.8
2022-10-25T00:33:30.485Z,30.8
2022-10-25T00:34:32.155Z,30.7
2022-10-25T00:35:33.861Z,30.7
2022-10-25T00:36:35.622Z,30.7
2022-10-25T00:37:37.485Z,30.7
2022-10-25T00:38:39.479Z,30.7
2022-10-25T00:39:41.126Z,30.7
2022-10-25T00:40:42.635Z,30.7
2022-10-25T00:41:44.171Z,30.8
2022-10-25T00:42:46.630Z,30.7
2022-10-25T00:43:49.354Z,30.7
2022-10-25T00:44:50.878Z,30.7
2022-10-25T00:45:52.785Z,30.8
2022-10-25T00:46:54.791Z,30.7
2022-10-25T00:47:56.442Z,30.7
2022-10-25T00:48:58.188Z,30.7
2022-10-25T00:49:59.806Z,30.8
2022-10-25T00:51:01.501Z,30.8
2022-10-25T00:52:03.329Z,30.8
2022-10-25T00:53:04.876Z,30.8
2022-10-25T00:54:06.515Z,30.7
2022-10-25T00:55:08.449Z,30.7
2022-10-25T00:56:10.111Z,30.7
2022-10-25T00:57:11.699Z,30.7
2022-10-25T00:58:13.346Z,30.7
2022-10-25T00:59:14.943Z,30.8
2022-10-25T01:00:16.484Z,30.7
2022-10-25T01:01:18.485Z,30.7
2022-10-25T01:02:20.928Z,30.7
2022-10-25T01:03:22.970Z,30.7
2022-10-25T01:04:24.530Z,30.7
2022-10-25T01:05:26.151Z,30.7
2022-10-25T01:06:27.861Z,30.8
2022-10-25T01:07:29.588Z,30.8
2022-10-25T01:08:31.166Z,30.7
2022-10-25T01:09:32.845Z,30.7
2022-10-25T01:10:34.419Z,30.7
2022-10-25T01:11:36.126Z,30.7
2022-10-25T01:12:37.916Z,30.7
2022-10-25T01:13:39.515Z,30.7
2022-10-25T01:14:41.167Z,30.7
2022-10-25T01:15:42.792Z,30.7
2022-10-25T01:16:44.450Z,30.7
2022-10-25T01:17:46.019Z,30.7
2022-10-25T01:18:47.644Z,30.7
2022-10-25T01:19:49.288Z,30.7
2022-10-25T01:20:51.000Z,30.7
2022-10-25T01:21:52.703Z,30.7
2022-10-25T01:22:54.478Z,30.7
2022-10-25T01:23:56.043Z,30.7
2022-10-25T01:24:57.585Z,30.7
2022-10-25T01:25:59.130Z,30.8
2022-10-25T01:27:00.682Z,29.9
2022-10-25T01:28:02.321Z,29.9
2022-10-25T01:29:03.932Z,30.7
2022-10-25T01:30:05.636Z,30.7
2022-10-25T01:31:07.381Z,30.8
2022-10-25T01:32:09.102Z,30.9
2022-10-25T01:33:10.658Z,30.9
2022-10-25T01:34:12.310Z,30.9
2022-10-25T01:35:17.065Z,30.9
2022-10-25T01:36:18.677Z,30.9
2022-10-25T01:37:20.455Z,30.9
2022-10-25T01:38:22.222Z,30.9
2022-10-25T01:39:23.860Z,30.9
2022-10-25T01:40:25.431Z,30.9
2022-10-25T01:41:27.321Z,30.9
2022-10-25T01:42:29.064Z,30.8
2022-10-25T01:43:30.707Z,30.9
2022-10-25T01:44:32.501Z,30.9
2022-10-25T01:45:34.452Z,30.8
2022-10-25T01:46:35.995Z,30.8
2022-10-25T01:47:37.638Z,30.9
2022-10-25T01:48:39.447Z,30.9
2022-10-25T01:49:41.107Z,30.9
2022-10-25T01:50:42.942Z,30.8
2022-10-25T01:51:44.689Z,30.8
2022-10-25T01:52:46.545Z,30.8
2022-10-25T01:53:48.490Z,30.8
2022-10-25T01:54:50.081Z,30.8
2022-10-25T01:55:51.723Z,30.8
2022-10-25T01:56:53.444Z,30.8
2022-10-25T01:57:55.056Z,30.8
2022-10-25T01:58:56.714Z,30.8
2022-10-25T01:59:58.242Z,30.8
2022-10-25T02:01:00.075Z,30.8
2022-10-25T02:02:02.234Z,30.8
2022-10-25T02:03:03.786Z,30.8
2022-10-25T02:04:05.482Z,30.8
2022-10-25T02:05:07.022Z,30.8
2022-10-25T02:06:08.592Z,30.8
2022-10-25T02:07:10.132Z,30.8
2022-10-25T02:08:11.857Z,30.8
2022-10-25T02:09:13.625Z,30.8
2022-10-25T02:10:15.170Z,30.8
2022-10-25T02:11:16.723Z,30.8
2022-10-25T02:12:18.414Z,30.8
2022-10-25T02:13:20.056Z,30.8
2022-10-25T02:14:21.640Z,30.8
2022-10-25T02:15:23.226Z,30.8
2022-10-25T02:16:24.920Z,30.7
2022-10-25T02:17:26.657Z,30.7
2022-10-25T02:18:28.459Z,30.8
2022-10-25T02:19:30.235Z,30.8
2022-10-25T02:20:31.767Z,30.8
2022-10-25T02:21:33.282Z,30.7
2022-10-25T02:22:34.982Z,30.7
2022-10-25T02:23:36.709Z,30.7
2022-10-25T02:24:38.580Z,30.7
2022-10-25T02:25:40.160Z,30.7
2022-10-25T02:26:41.778Z,30.7
2022-10-25T02:27:43.973Z,30.7
2022-10-25T02:28:47.137Z,30.7
2022-10-25T02:29:48.810Z,30.7
2022-10-25T02:30:50.549Z,30.7
2022-10-25T02:31:52.240Z,30.7
2022-10-25T02:32:53.841Z,30.7
2022-10-25T02:33:55.372Z,30.7
2022-10-25T02:34:57.065Z,30.7
2022-10-25T02:35:58.731Z,30.7
2022-10-25T02:37:00.318Z,30.7
2022-10-25T02:38:01.861Z,30.8
2022-10-25T02:39:03.463Z,30.8
2022-10-25T02:40:05.290Z,30.7
2022-10-25T02:41:06.834Z,30.8
2022-10-25T02:42:08.476Z,30.7
2022-10-25T02:43:10.025Z,30.7
2022-10-25T02:44:11.844Z,30.7
2022-10-25T02:45:13.517Z,30.7
2022-10-25T02:46:15.163Z,30.7
2022-10-25T02:47:16.766Z,30.7
2022-10-25T02:48:18.427Z,30.7
2022-10-25T02:49:20.096Z,30.7
2022-10-25T02:50:21.846Z,30.7
2022-10-25T02:51:23.387Z,30.7
2022-10-25T02:52:25.033Z,30.7
2022-10-25T02:53:26.550Z,30.7
2022-10-25T02:54:28.280Z,30.7
2022-10-25T02:55:30.071Z,30.7
2022-10-25T02:56:31.690Z,30.7
2022-10-25T02:57:33.244Z,30.7
2022-10-25T02:58:34.802Z,30.7
2022-10-25T02:59:36.346Z,30.7
2022-10-25T03:00:38.121Z,30.7
2022-10-25T03:01:40.096Z,30.7
2022-10-25T03:02:41.887Z,30.7
2022-10-25T03:03:43.405Z,30.7
2022-10-25T03:04:44.941Z,30.7
2022-10-25T03:05:46.523Z,30.6
2022-10-25T03:06:48.071Z,30.7
2022-10-25T03:07:49.609Z,30.7
2022-10-25T03:08:51.256Z,30.7
2022-10-25T03:09:52.931Z,30.7
2022-10-25T03:10:54.856Z,30.7
2022-10-25T03:11:56.401Z,30.7
2022-10-25T03:12:58.051Z,30.6
2022-10-25T03:13:59.735Z,30.7
2022-10-25T03:15:01.380Z,30.7
2022-10-25T03:16:03.089Z,30.6
2022-10-25T03:17:04.833Z,30.6
2022-10-25T03:18:06.682Z,30.7
2022-10-25T03:19:08.417Z,30.7
2022-10-25T03:20:09.980Z,30.6
2022-10-25T03:21:11.659Z,30.7
2022-10-25T03:22:13.360Z,30.6
2022-10-25T03:23:15.517Z,30.7
2022-10-25T03:24:17.124Z,30.7
2022-10-25T03:25:18.732Z,30.6
2022-10-25T03:26:20.561Z,30.6
2022-10-25T03:27:22.304Z,30.6
2022-10-25T03:28:23.949Z,30.6
2022-10-25T03:29:25.498Z,30.6
2022-10-25T03:30:27.135Z,30.6
2022-10-25T03:31:28.724Z,30.6
2022-10-25T03:32:30.324Z,30.6
2022-10-25T03:33:31.972Z,30.6
2022-10-25T03:34:33.705Z,30.6
2022-10-25T03:35:35.353Z,30.6
2022-10-25T03:36:36.891Z,30.6
2022-10-25T03:37:38.658Z,30.5
2022-10-25T03:38:40.208Z,30.5
2022-10-25T03:39:41.754Z,30.4
2022-10-25T03:40:43.517Z,30.5
2022-10-25T03:41:45.438Z,30.5
2022-10-25T03:42:46.976Z,30.5
2022-10-25T03:43:48.832Z,30.5
2022-10-25T03:44:50.372Z,30.5
2022-10-25T03:45:52.065Z,30.5
2022-10-25T03:46:53.658Z,30.5
2022-10-25T03:47:55.310Z,30.5
2022-10-25T03:48:56.851Z,30.5
2022-10-25T03:49:58.363Z,30.5
2022-10-25T03:50:59.997Z,30.4
2022-10-25T03:52:05.218Z,30.4
2022-10-25T03:54:11.837Z,30.4
2022-10-25T03:55:13.489Z,30.5
2022-10-25T03:56:15.160Z,30.5
2022-10-25T03:57:17.083Z,30.4
2022-10-25T03:58:18.625Z,30.4
2022-10-25T03:59:20.100Z,30.4
2022-10-25T04:00:21.815Z,30.4
2022-10-25T04:01:23.758Z,30.4
2022-10-25T04:02:25.919Z,30.4
2022-10-25T04:03:27.568Z,30.4
2022-10-25T04:04:29.109Z,30.4
2022-10-25T04:05:30.759Z,30.5
2022-10-25T04:06:32.502Z,30.4
2022-10-25T04:07:34.149Z,30.4
2022-10-25T04:08:35.797Z,30.4
2022-10-25T04:09:37.383Z,30.4
2022-10-25T04:10:39.050Z,30.5
2022-10-25T04:11:40.863Z,30.5
2022-10-25T04:12:42.802Z,30.5
2022-10-25T04:13:44.592Z,30.6
2022-10-25T04:14:46.278Z,30.6
2022-10-25T04:15:47.812Z,30.5
2022-10-25T04:16:49.669Z,30.6
2022-10-25T04:17:51.214Z,30.7
2022-10-25T04:18:52.858Z,30.6
2022-10-25T04:19:54.367Z,30.8
2022-10-25T04:20:56.057Z,30.8
2022-10-25T04:21:57.835Z,30.8
2022-10-25T04:22:59.372Z,30.7
2022-10-25T04:24:04.646Z,30.7
2022-10-25T04:25:06.422Z,30.8
2022-10-25T04:26:08.061Z,30.8
2022-10-25T04:27:09.834Z,30.9
2022-10-25T04:28:11.504Z,30.9
2022-10-25T04:29:13.046Z,30.8
2022-10-25T04:30:14.651Z,30.8
2022-10-25T04:31:16.288Z,30.9
2022-10-25T04:32:20.876Z,30.9
2022-10-25T04:33:22.695Z,30.8
2022-10-25T04:34:24.293Z,30.9
2022-10-25T04:35:25.849Z,30.9
2022-10-25T04:36:27.552Z,30.8
2022-10-25T04:37:29.131Z,30.9
2022-10-25T04:38:30.674Z,30.9
2022-10-25T04:39:32.316Z,30.9
2022-10-25T04:40:33.886Z,30.9
2022-10-25T04:41:35.610Z,30.9
2022-10-25T04:42:37.280Z,30.9
2022-10-25T04:43:39.042Z,30.8
2022-10-25T04:44:43.617Z,30.8
2022-10-25T04:45:45.160Z,30.8
2022-10-25T04:46:49.277Z,30.8
2022-10-25T04:47:50.871Z,30.8
2022-10-25T04:48:52.756Z,30.8
2022-10-25T04:49:54.504Z,30.8
2022-10-25T04:50:56.043Z,30.7
2022-10-25T04:51:57.671Z,30.7
2022-10-25T04:52:59.445Z,30.7
2022-10-25T04:54:00.987Z,30.7
2022-10-25T04:55:02.625Z,30.7
2022-10-25T04:56:04.244Z,30.8
2022-10-25T04:57:05.785Z,30.9
2022-10-25T04:58:07.380Z,30.8
2022-10-25T04:59:09.178Z,30.7
2022-10-25T05:00:10.852Z,30.8
2022-10-25T05:01:12.540Z,30.7
2022-10-25T05:02:14.522Z,30.7
2022-10-25T05:03:16.330Z,30.7
2022-10-25T05:04:18.093Z,30.6
2022-10-25T05:05:19.728Z,30.6
2022-10-25T05:06:21.441Z,30.6
2022-10-25T05:07:23.087Z,30.6
2022-10-25T05:08:24.768Z,30.6
2022-10-25T05:09:26.378Z,30.6
2022-10-25T05:10:27.975Z,30.6
2022-10-25T05:11:29.676Z,30.4
2022-10-25T05:12:31.571Z,30.5
2022-10-25T05:13:33.296Z,30.5
2022-10-25T05:14:35.216Z,30.5
2022-10-25T05:15:36.882Z,30.5
2022-10-25T05:16:38.510Z,30.5
2022-10-25T05:17:40.168Z,30.5
2022-10-25T05:18:41.697Z,30.5
2022-10-25T05:19:43.260Z,30.5
2022-10-25T05:20:44.858Z,30.5
2022-10-25T05:21:46.443Z,30.5
2022-10-25T05:22:48.823Z,30.5
2022-10-25T05:23:51.419Z,30.5
2022-10-25T05:24:52.993Z,30.4
2022-10-25T05:25:54.646Z,30.5
2022-10-25T05:26:56.294Z,30.5
2022-10-25T05:27:58.039Z,30.5
2022-10-25T05:28:59.707Z,30.5
2022-10-25T05:30:01.478Z,30.5
2022-10-25T05:31:03.211Z,30.5
2022-10-25T05:32:05.032Z,30.5
2022-10-25T05:33:06.574Z,30.4
2022-10-25T05:34:08.217Z,30.4
2022-10-25T05:35:09.861Z,30.4
2022-10-25T05:36:11.512Z,30.4
2022-10-25T05:37:13.160Z,30.4
2022-10-25T05:38:14.781Z,30.4
2022-10-25T05:39:16.379Z,30.3
2022-10-25T05:40:17.921Z,30.3
2022-10-25T05:41:19.463Z,30.2
2022-10-25T05:42:21.278Z,30.3
2022-10-25T05:43:22.820Z,30.2
2022-10-25T05:44:24.489Z,30.2
2022-10-25T05:45:26.315Z,30.1
2022-10-25T05:46:27.858Z,30.1
2022-10-25T05:47:29.505Z,30
2022-10-25T05:48:31.068Z,30.1
2022-10-25T05:49:32.614Z,29.9
2022-10-25T05:50:34.380Z,29.9
2022-10-25T05:51:37.478Z,29.8
2022-10-25T05:52:39.225Z,29.7
2022-10-25T05:53:40.920Z,29.8
2022-10-25T05:54:42.540Z,29.8
2022-10-25T05:55:44.103Z,29.7
2022-10-25T05:56:45.718Z,29.7
2022-10-25T05:57:47.268Z,29.6
2022-10-25T05:58:48.975Z,29.7
2022-10-25T05:59:50.910Z,29.6
2022-10-25T06:00:52.881Z,29.4
2022-10-25T06:01:55.099Z,29.5
2022-10-25T06:02:57.469Z,29.5
2022-10-25T06:03:59.206Z,29.4
2022-10-25T06:05:00.862Z,29.5
2022-10-25T06:06:02.397Z,29.3
2022-10-25T06:07:04.068Z,29.3
2022-10-25T06:08:05.668Z,29.3
2022-10-25T06:09:07.379Z,29.4
2022-10-25T06:10:11.029Z,29.3
2022-10-25T06:11:12.661Z,29.1
2022-10-25T06:12:14.277Z,29.1
2022-10-25T06:13:15.922Z,29.1
2022-10-25T06:14:17.600Z,29
2022-10-25T06:15:19.416Z,29
2022-10-25T06:16:21.127Z,29
2022-10-25T06:17:22.722Z,29
2022-10-25T06:18:24.425Z,29
2022-10-25T06:19:26.148Z,29.2
2022-10-25T06:20:28.140Z,29.2
2022-10-25T06:21:30.453Z,28.9
2022-10-25T06:22:32.081Z,29
2022-10-25T06:23:33.764Z,29
2022-10-25T06:24:35.397Z,29.2
2022-10-25T06:25:37.100Z,29.1
2022-10-25T06:26:38.679Z,29.1
2022-10-25T06:27:40.292Z,29.1
2022-10-25T06:28:41.866Z,29.1
2022-10-25T06:29:43.513Z,29.1
2022-10-25T06:30:45.198Z,29.3
2022-10-25T06:31:46.880Z,29.1
2022-10-25T06:32:49.150Z,29
2022-10-25T06:33:51.535Z,28.9
2022-10-25T06:34:53.282Z,28.9
2022-10-25T06:35:54.916Z,28.9
2022-10-25T06:36:56.490Z,28.9
2022-10-25T06:37:58.071Z,28.9
2022-10-25T06:39:07.120Z,29
2022-10-25T06:40:09.103Z,29.1
2022-10-25T06:41:10.939Z,29
2022-10-25T06:42:12.534Z,28.9
2022-10-25T06:43:14.082Z,28.9
2022-10-25T06:44:15.769Z,28.8
2022-10-25T06:45:17.341Z,28.8
2022-10-25T06:46:19.095Z,28.9
2022-10-25T06:47:20.850Z,28.9
2022-10-25T06:48:22.419Z,28.9
2022-10-25T06:49:24.411Z,29
2022-10-25T06:50:26.413Z,29
2022-10-25T06:51:28.213Z,29.2
2022-10-25T06:52:29.858Z,29.3
2022-10-25T06:53:31.551Z,29.1
2022-10-25T06:54:33.250Z,29.1
2022-10-25T06:55:34.953Z,28.9
2022-10-25T06:56:36.642Z,29.2
2022-10-25T06:57:38.225Z,29
2022-10-25T06:58:39.793Z,29
2022-10-25T06:59:41.393Z,28.9
2022-10-25T07:00:47.450Z,28.9
2022-10-25T07:01:52.034Z,28.9
2022-10-25T07:02:54.291Z,28.9
2022-10-25T07:03:55.936Z,28.9
2022-10-25T07:04:57.693Z,29.1
2022-10-25T07:05:59.431Z,28.9
2022-10-25T07:07:01.042Z,28.9
2022-10-25T07:08:02.829Z,28.9
2022-10-25T07:09:04.626Z,28.9
2022-10-25T07:10:06.331Z,28.9
2022-10-25T07:11:07.971Z,28.9
2022-10-25T07:12:13.020Z,28.8
2022-10-25T07:13:14.742Z,28.8
2022-10-25T07:14:16.389Z,28.9
2022-10-25T07:16:21.316Z,28.9
2022-10-25T07:17:23.100Z,29
2022-10-25T07:18:25.332Z,29
2022-10-25T07:19:27.069Z,28.8
2022-10-25T07:20:28.715Z,28.9
2022-10-25T07:21:30.569Z,28.8
2022-10-25T07:22:32.722Z,28.9
2022-10-25T07:23:34.349Z,29
2022-10-25T07:24:36.070Z,28.9
2022-10-25T07:25:37.764Z,28.9
2022-10-25T07:26:39.387Z,28.8
2022-10-25T07:27:41.016Z,28.8
2022-10-25T07:28:42.746Z,28.8
2022-10-25T07:29:44.330Z,28.8
2022-10-25T07:30:46.361Z,28.7
2022-10-25T07:31:48.247Z,28.7
2022-10-25T07:32:49.930Z,29
2022-10-25T07:33:51.709Z,28.9
2022-10-25T07:34:53.541Z,28.8
2022-10-25T07:36:12.245Z,29
2022-10-25T07:37:14.702Z,29.1
2022-10-25T07:38:16.621Z,29
2022-10-25T07:39:18.331Z,29
2022-10-25T07:40:20.216Z,29.1
2022-10-25T07:41:22.253Z,29.2
2022-10-25T07:42:23.815Z,29.2
2022-10-25T07:43:25.493Z,29.3
2022-10-25T07:44:27.384Z,29.4
2022-10-25T07:45:31.500Z,29.4
2022-10-25T07:46:33.087Z,29.5
2022-10-25T07:47:34.819Z,29.5
2022-10-25T07:48:36.609Z,29.5
2022-10-25T07:49:38.405Z,29.6
2022-10-25T07:50:40.039Z,29.6
2022-10-25T07:51:41.756Z,29.6
2022-10-25T07:52:43.471Z,29.7
2022-10-25T07:53:45.329Z,29.7
2022-10-25T07:54:46.973Z,29.8
2022-10-25T07:55:48.585Z,29.8
2022-10-25T07:56:50.261Z,29.8
2022-10-25T07:57:54.682Z,29.8
2022-10-25T07:58:56.520Z,29.8
2022-10-25T07:59:58.166Z,29.8
2022-10-25T08:01:00.237Z,29.9
2022-10-25T08:02:01.840Z,30.2
2022-10-25T08:03:04.045Z,30.1
2022-10-25T08:04:06.304Z,30.2
2022-10-25T08:05:08.185Z,30.1
2022-10-25T08:06:10.038Z,30.3
2022-10-25T08:07:12.217Z,30.2
2022-10-25T08:08:14.161Z,30.2
2022-10-25T08:09:38.825Z,30.3
2022-10-25T08:10:40.606Z,30.3
2022-10-25T08:11:42.277Z,30.5
2022-10-25T08:12:43.869Z,30.5
2022-10-25T08:13:45.563Z,30.6
2022-10-25T08:14:49.920Z,30.7
2022-10-25T08:15:51.725Z,30.6
2022-10-25T08:16:53.314Z,30.8
2022-10-25T08:17:55.107Z,30.8
2022-10-25T08:18:56.887Z,30.9
2022-10-25T08:19:58.632Z,31
2022-10-25T08:21:04.222Z,30.9
2022-10-25T08:22:06.514Z,30.9
2022-10-25T08:23:08.120Z,30.8
2022-10-25T08:24:09.911Z,30.7
2022-10-25T08:25:11.960Z,30.7
2022-10-25T08:26:13.669Z,30.7
2022-10-25T08:27:15.455Z,30.7
2022-10-25T08:28:17.202Z,30.9
2022-10-25T08:29:19.353Z,30.6
2022-10-25T08:30:21.192Z,30.7
2022-10-25T08:31:23.052Z,30.7
2022-10-25T08:32:24.768Z,30.7
2022-10-25T08:33:26.349Z,30.6
2022-10-25T08:34:33.040Z,30.6
2022-10-25T08:35:35.090Z,30.6
2022-10-25T08:36:37.334Z,30.6
2022-10-25T08:37:38.977Z,30.6
2022-10-25T08:38:40.572Z,30.7
2022-10-25T08:39:42.158Z,30.6
2022-10-25T08:40:43.903Z,30.6
2022-10-25T08:41:45.468Z,30.6
2022-10-25T08:42:47.192Z,30.7
2022-10-25T08:43:48.887Z,30.7
2022-10-25T08:44:51.301Z,30.7
2022-10-25T08:45:53.020Z,30.7
2022-10-25T08:46:54.695Z,30.8
2022-10-25T08:47:56.264Z,30.8
2022-10-25T08:48:58.056Z,30.8
2022-10-25T08:49:59.667Z,30.9
2022-10-25T08:51:01.403Z,30.9
2022-10-25T08:52:03.348Z,30.9
2022-10-25T08:53:04.935Z,31
2022-10-25T08:54:06.609Z,31
2022-10-25T08:55:08.387Z,30.9
2022-10-25T08:56:17.564Z,30.9
2022-10-25T08:57:19.909Z,31
2022-10-25T08:58:21.496Z,30.9
2022-10-25T08:59:25.705Z,31
2022-10-25T09:00:27.449Z,31
2022-10-25T09:01:29.257Z,31
2022-10-25T09:02:31.950Z,31
2022-10-25T09:03:34.583Z,31.1
2022-10-25T09:04:36.874Z,31.2
2022-10-25T09:05:38.543Z,31.2
2022-10-25T09:06:40.216Z,31.1
2022-10-25T09:07:43.063Z,31.1
2022-10-25T09:08:44.632Z,31.1
2022-10-25T09:09:46.257Z,31.2
2022-10-25T09:10:48.000Z,31.2
2022-10-25T09:11:49.747Z,31.2
2022-10-25T09:12:51.288Z,31.2
2022-10-25T09:13:52.888Z,31.2
2022-10-25T09:14:54.885Z,31.2
2022-10-25T09:15:56.633Z,31.2
2022-10-25T09:16:58.210Z,31.3
2022-10-25T09:17:59.750Z,31.2
2022-10-25T09:19:01.444Z,31.3
2022-10-25T09:20:03.010Z,31.3
2022-10-25T09:21:09.935Z,31.3
2022-10-25T09:22:24.358Z,31.4
2022-10-25T09:23:26.387Z,31.3
2022-10-25T09:24:28.202Z,31.3
2022-10-25T09:25:29.968Z,31.3
2022-10-25T09:26:31.928Z,31.3
2022-10-25T09:27:33.564Z,31.3
2022-10-25T09:28:35.731Z,31.3
2022-10-25T09:29:37.880Z,31.5
2022-10-25T09:30:39.455Z,31.4
2022-10-25T09:31:41.185Z,31.3
2022-10-25T09:32:43.737Z,31.4
2022-10-25T09:33:45.543Z,31.4
2022-10-25T09:34:47.249Z,31.4
2022-10-25T09:35:48.870Z,31.4
2022-10-25T09:36:50.633Z,31.4
2022-10-25T09:37:52.410Z,31.3
2022-10-25T09:38:54.180Z,31.4
2022-10-25T09:39:55.882Z,31.5
2022-10-25T09:40:57.429Z,31.4
2022-10-25T09:41:59.061Z,31.4
2022-10-25T09:43:01.381Z,31.5
2022-10-25T09:44:03.309Z,31.3
2022-10-25T09:45:05.229Z,31.4
2022-10-25T09:46:06.780Z,31.3
2022-10-25T09:47:08.373Z,31.3
2022-10-25T09:48:10.344Z,31.4
2022-10-25T09:49:12.014Z,31.5
2022-10-25T09:50:13.657Z,31.4
2022-10-25T09:51:15.278Z,31.5
2022-10-25T09:52:16.845Z,31.5
2022-10-25T09:53:24.168Z,31.4
2022-10-25T09:54:26.284Z,31.4
2022-10-25T09:55:28.031Z,31.4
2022-10-25T09:56:29.610Z,31.4
2022-10-25T09:57:31.188Z,31.4
2022-10-25T09:58:32.860Z,31.4
2022-10-25T09:59:34.512Z,31.5
2022-10-25T10:00:36.359Z,31.5
2022-10-25T10:01:38.394Z,31.5
2022-10-25T10:02:40.928Z,31.5
2022-10-25T10:03:47.147Z,31.4
2022-10-25T10:05:00.712Z,31.5
2022-10-25T10:06:02.400Z,31.3
2022-10-25T10:07:03.977Z,31.3
2022-10-25T10:08:06.233Z,31.2
2022-10-25T10:09:07.978Z,31.3
2022-10-25T10:10:09.734Z,31.2
2022-10-25T10:11:11.455Z,31.3
2022-10-25T10:12:13.093Z,31.3
2022-10-25T10:13:14.982Z,31.2
2022-10-25T10:14:16.694Z,31.2
2022-10-25T10:15:18.334Z,31.2
2022-10-25T10:16:19.913Z,31.4
2022-10-25T10:17:21.549Z,31.3
2022-10-25T10:18:23.275Z,31.2
2022-10-25T10:19:25.020Z,31.2
2022-10-25T10:20:26.677Z,31.3
2022-10-25T10:21:28.413Z,31.3
2022-10-25T10:22:29.981Z,31.4
2022-10-25T10:23:31.587Z,31.4
2022-10-25T10:24:33.350Z,31.3
2022-10-25T10:25:35.603Z,31.3
2022-10-25T10:26:37.177Z,31.3
2022-10-25T10:27:38.897Z,31.3
2022-10-25T10:28:40.491Z,31.3
2022-10-25T10:29:42.288Z,31.3
2022-10-25T10:30:43.868Z,31.2
2022-10-25T10:31:45.432Z,31.2
2022-10-25T10:32:47.136Z,31.2
2022-10-25T10:33:48.769Z,31.3
2022-10-25T10:34:50.441Z,31.2
2022-10-25T10:35:52.165Z,31.1
2022-10-25T10:36:53.739Z,31.2
2022-10-25T10:37:55.343Z,31.2
2022-10-25T10:38:56.913Z,31.2
2022-10-25T10:39:58.768Z,31.1
2022-10-25T10:41:00.533Z,31.1
2022-10-25T10:42:02.139Z,31.1
2022-10-25T10:43:03.806Z,31.1
2022-10-25T10:44:05.384Z,31.2
2022-10-25T10:45:07.021Z,31
2022-10-25T10:46:09.111Z,31.1
2022-10-25T10:47:10.822Z,31.2
2022-10-25T10:48:12.411Z,31.1
2022-10-25T10:49:14.062Z,31
2022-10-25T10:50:15.810Z,31
2022-10-25T10:51:44.279Z,31
2022-10-25T10:52:47.928Z,31.1
2022-10-25T10:53:51.109Z,31.2
2022-10-25T10:54:52.771Z,31.1
2022-10-25T10:55:54.575Z,31.1
2022-10-25T10:56:56.265Z,31.1
2022-10-25T10:57:58.162Z,31.1
2022-10-25T10:58:59.818Z,31
2022-10-25T11:00:01.440Z,31.2
2022-10-25T11:01:03.489Z,31.1
2022-10-25T11:02:06.130Z,31.2
2022-10-25T11:03:08.378Z,31.1
2022-10-25T11:04:10.077Z,31
2022-10-25T11:05:11.828Z,31
2022-10-25T11:06:14.025Z,31.1
2022-10-25T11:07:15.832Z,31
2022-10-25T11:08:17.447Z,31
2022-10-25T11:09:19.073Z,31.1
2022-10-25T11:10:20.853Z,31.1
2022-10-25T11:11:22.447Z,31.1
2022-10-25T11:12:24.203Z,31
2022-10-25T11:13:25.853Z,31.1
2022-10-25T11:14:27.541Z,30.9
2022-10-25T11:15:29.241Z,30.9
2022-10-25T11:16:30.800Z,30.9
2022-10-25T11:17:32.583Z,30.9
2022-10-25T11:18:34.185Z,30.8
2022-10-25T11:19:35.849Z,30.8
2022-10-25T11:20:37.415Z,30.8
2022-10-25T11:21:39.161Z,30.8
2022-10-25T11:22:41.027Z,30.8
2022-10-25T11:23:43.170Z,30.7
2022-10-25T11:24:45.022Z,30.8
2022-10-25T11:25:46.596Z,30.8
2022-10-25T11:26:48.745Z,30.7
2022-10-25T11:27:51.757Z,30.7
2022-10-25T11:28:53.987Z,30.7
2022-10-25T11:29:55.734Z,30.7
2022-10-25T11:30:57.360Z,30.7
2022-10-25T11:31:58.964Z,30.7
2022-10-25T11:33:00.543Z,30.7
2022-10-25T11:34:06.602Z,30.6
2022-10-25T11:35:11.716Z,30.6
2022-10-25T11:36:13.358Z,30.6
2022-10-25T11:37:15.054Z,30.4
2022-10-25T11:38:16.700Z,30.5
2022-10-25T11:39:18.536Z,30.5
2022-10-25T11:40:20.140Z,30.3
2022-10-25T11:41:21.890Z,30.5
2022-10-25T11:43:26.888Z,30.5
2022-10-25T11:44:28.774Z,30.4
2022-10-25T11:45:30.342Z,30.5
2022-10-25T11:46:31.917Z,30.4
2022-10-25T11:47:33.605Z,30.3
2022-10-25T11:48:35.202Z,30.2
2022-10-25T11:49:36.913Z,30.1
2022-10-25T11:50:38.742Z,30.1
2022-10-25T11:51:40.480Z,29.9
2022-10-25T11:52:42.063Z,29.9
2022-10-25T11:53:43.641Z,29.6
2022-10-25T11:54:45.330Z,29.6
2022-10-25T11:55:49.027Z,29.8
2022-10-25T11:56:51.141Z,29.8
2022-10-25T11:57:53.252Z,29.9
2022-10-25T11:58:55.403Z,29.7
2022-10-25T11:59:57.156Z,30
2022-10-25T12:00:58.942Z,30.2
2022-10-25T12:02:00.635Z,30.3
2022-10-25T12:03:02.463Z,30.3
2022-10-25T12:04:04.642Z,30.2
2022-10-25T12:05:06.256Z,29.8
2022-10-25T12:06:08.137Z,30.2
2022-10-25T12:07:09.819Z,30.3
2022-10-25T12:08:11.413Z,30.4
2022-10-25T12:09:13.478Z,29.9
2022-10-25T12:10:15.134Z,30.2
2022-10-25T12:11:19.174Z,30.3
2022-10-25T12:12:20.870Z,30.1
2022-10-25T12:13:23.358Z,30.1
2022-10-25T12:14:25.397Z,30.2
2022-10-25T12:15:27.247Z,30.1
2022-10-25T12:16:28.880Z,30.1
2022-10-25T12:17:30.435Z,30
2022-10-25T12:18:32.065Z,30.2
2022-10-25T12:19:33.935Z,30.2
2022-10-25T12:21:37.425Z,30
2022-10-25T12:22:39.203Z,29.9
2022-10-25T12:23:40.890Z,29.9
2022-10-25T12:24:42.466Z,30
2022-10-25T12:25:44.315Z,29.7
2022-10-25T12:26:45.960Z,29.7
2022-10-25T12:27:47.596Z,29.7
2022-10-25T12:28:49.643Z,29.7
2022-10-25T12:29:51.666Z,29.6
2022-10-25T12:30:53.281Z,29.7
2022-10-25T12:31:54.849Z,29.6
2022-10-25T12:32:56.539Z,29.6
2022-10-25T12:33:58.145Z,29.6
2022-10-25T12:34:59.746Z,29.6
2022-10-25T12:36:01.476Z,29.5
2022-10-25T12:37:03.057Z,29.5
2022-10-25T12:38:04.634Z,29.4
2022-10-25T12:39:06.230Z,29.6
2022-10-25T12:40:08.180Z,29.6
2022-10-25T12:41:09.783Z,29.5
2022-10-25T12:42:11.379Z,29.5
2022-10-25T12:43:12.941Z,29.4
2022-10-25T12:44:15.070Z,29.4
2022-10-25T12:45:17.060Z,29.7
2022-10-25T12:46:18.768Z,29.3
2022-10-25T12:47:23.466Z,29.3
2022-10-25T12:48:25.003Z,29.4
2022-10-25T12:49:27.210Z,29.4
2022-10-25T12:50:28.774Z,29.3
2022-10-25T12:51:30.766Z,29.3
2022-10-25T12:52:35.701Z,29.4
2022-10-25T12:53:37.288Z,29.4
2022-10-25T12:54:38.986Z,29.4
2022-10-25T12:55:40.663Z,29.3
2022-10-25T12:56:42.573Z,29.3
2022-10-25T12:57:48.645Z,29.4
2022-10-25T12:58:50.369Z,29.4
2022-10-25T12:59:52.318Z,29.4
2022-10-25T13:00:54.390Z,29.3
2022-10-25T13:01:55.999Z,29.2
2022-10-25T13:02:57.575Z,29.1
2022-10-25T13:03:59.329Z,29.2
2022-10-25T13:05:01.573Z,29.3
2022-10-25T13:06:03.132Z,29.2
2022-10-25T13:07:04.728Z,29.3
2022-10-25T13:08:06.812Z,29.2
2022-10-25T13:09:08.559Z,29
2022-10-25T13:10:10.138Z,29.1
2022-10-25T13:11:12.597Z,29.2
2022-10-25T13:12:15.029Z,29.2
2022-10-25T13:13:16.623Z,29
2022-10-25T13:14:18.325Z,28.9
2022-10-25T13:15:20.494Z,29
2022-10-25T13:16:22.483Z,29.1
2022-10-25T13:17:24.209Z,29.1
2022-10-25T13:18:25.982Z,29.1
2022-10-25T13:19:55.196Z,28.9
2022-10-25T13:20:57.882Z,29
2022-10-25T13:21:59.534Z,29
2022-10-25T13:23:01.120Z,29
2022-10-25T13:24:03.340Z,29
2022-10-25T13:25:05.002Z,28.9
2022-10-25T13:26:06.728Z,28.8
2022-10-25T13:27:08.405Z,28.7
2022-10-25T13:28:10.086Z,28.9
2022-10-25T13:29:11.873Z,28.9
2022-10-25T13:30:13.709Z,29
2022-10-25T13:31:15.775Z,29
2022-10-25T13:32:17.686Z,29
2022-10-25T13:33:19.396Z,29
2022-10-25T13:34:21.126Z,28.7
2022-10-25T13:35:22.704Z,28.7
2022-10-25T13:36:24.380Z,28.8
2022-10-25T13:37:25.993Z,28.8
2022-10-25T13:38:27.714Z,29
2022-10-25T13:39:29.278Z,29.1
2022-10-25T13:40:30.931Z,29
2022-10-25T13:41:32.540Z,28.8
2022-10-25T13:42:34.179Z,28.9
2022-10-25T13:43:35.930Z,28.9
2022-10-25T13:44:37.575Z,28.8
2022-10-25T13:45:39.279Z,28.6
2022-10-25T13:46:41.186Z,28.4
2022-10-25T13:47:43.236Z,28.6
2022-10-25T13:48:44.987Z,28.7
2022-10-25T13:49:46.722Z,28.9
2022-10-25T13:50:48.292Z,28.6
2022-10-25T13:51:50.094Z,28.7
2022-10-25T13:52:51.904Z,28.6
2022-10-25T13:53:53.521Z,28.5
2022-10-25T13:54:55.295Z,28.5